sensor_id;sensor_type;location;lat;lon;timestamp;temperature;humidity
18932;DHT22;9598;50.954;3.112;2022-11-23T00:03:13;9.90;99.90
18932;DHT22;9598;50.954;3.112;2022-11-23T00:08:16;9.80;99.90
18932;DHT22;9598;50.954;3.112;2022-11-23T00:13:19;9.80;99.90
18932;DHT22;9598;50.954;3.112;2022-11-23T00:18:21;9.80;99.90
18932;DHT22;9598;50.954;3.112;2022-11-23T00:23:23;9.80;99.90
18932;DHT22;9598;50.954;3.112;2022-11-23T00:28:26;9.80;99.90
18932;DHT22;9598;50.954;3.112;2022-11-23T00:33:29;9.70;99.90
18932;DHT22;9598;50.954;3.112;2022-11-23T00:38:31;9.70;99.90
18932;DHT22;9598;50.954;3.112;2022-11-23T00:43:34;9.70;99.90
18932;DHT22;9598;50.954;3.112;2022-11-23T00:48:37;9.70;99.90
18932;DHT22;9598;50.954;3.112;2022-11-23T00:53:39;9.60;99.90
18932;DHT22;9598;50.954;3.112;2022-11-23T00:58:46;9.70;99.90
18932;DHT22;9598;50.954;3.112;2022-11-23T01:03:50;9.70;99.90
18932;DHT22;9598;50.954;3.112;2022-11-23T01:08:55;9.70;99.90
18932;DHT22;9598;50.954;3.112;2022-11-23T01:13:58;9.70;99.90
18932;DHT22;9598;50.954;3.112;2022-11-23T01:19:03;9.70;99.90
18932;DHT22;9598;50.954;3.112;2022-11-23T01:24:07;9.70;99.90
18932;DHT22;9598;50.954;3.112;2022-11-23T01:29:13;9.70;99.90
18932;DHT22;9598;50.954;3.112;2022-11-23T01:34:16;9.60;99.90
18932;DHT22;9598;50.954;3.112;2022-11-23T01:39:18;9.60;99.90
18932;DHT22;9598;50.954;3.112;2022-11-23T01:44:27;9.60;99.90
18932;DHT22;9598;50.954;3.112;2022-11-23T01:49:33;9.60;99.90
18932;DHT22;9598;50.954;3.112;2022-11-23T01:54:39;9.50;99.90
18932;DHT22;9598;50.954;3.112;2022-11-23T01:59:45;9.50;99.90
18932;DHT22;9598;50.954;3.112;2022-11-23T02:04:48;9.50;99.90
18932;DHT22;9598;50.954;3.112;2022-11-23T02:09:51;9.50;99.90
18932;DHT22;9598;50.954;3.112;2022-11-23T02:14:55;9.50;99.90
18932;DHT22;9598;50.954;3.112;2022-11-23T02:20:03;9.50;99.90
18932;DHT22;9598;50.954;3.112;2022-11-23T02:25:15;9.40;99.90
18932;DHT22;9598;50.954;3.112;2022-11-23T02:30:21;9.40;99.90
18932;DHT22;9598;50.954;3.112;2022-11-23T02:35:27;9.40;99.90
18932;DHT22;9598;50.954;3.112;2022-11-23T02:40:31;9.40;99.90
18932;DHT22;9598;50.954;3.112;2022-11-23T02:45:38;9.40;99.90
18932;DHT22;9598;50.954;3.112;2022-11-23T02:50:42;9.40;99.90
18932;DHT22;9598;50.954;3.112;2022-11-23T02:55:44;9.40;99.90
18932;DHT22;9598;50.954;3.112;2022-11-23T03:00:48;9.30;99.90
18932;DHT22;9598;50.954;3.112;2022-11-23T03:05:53;9.40;99.90
18932;DHT22;9598;50.954;3.112;2022-11-23T03:10:55;9.30;99.90
18932;DHT22;9598;50.954;3.112;2022-11-23T03:15:59;9.30;99.90
18932;DHT22;9598;50.954;3.112;2022-11-23T03:21:02;9.30;99.90
18932;DHT22;9598;50.954;3.112;2022-11-23T03:26:05;9.30;99.90
18932;DHT22;9598;50.954;3.112;2022-11-23T03:31:14;9.20;99.90
18932;DHT22;9598;50.954;3.112;2022-11-23T03:36:16;9.20;99.90
18932;DHT22;9598;50.954;3.112;2022-11-23T03:41:21;9.20;99.90
18932;DHT22;9598;50.954;3.112;2022-11-23T03:46:27;9.20;99.90
18932;DHT22;9598;50.954;3.112;2022-11-23T03:51:29;9.20;99.90
18932;DHT22;9598;50.954;3.112;2022-11-23T03:56:31;9.20;99.90
18932;DHT22;9598;50.954;3.112;2022-11-23T04:01:36;9.10;99.90
18932;DHT22;9598;50.954;3.112;2022-11-23T04:06:42;9.20;99.90
18932;DHT22;9598;50.954;3.112;2022-11-23T04:11:51;9.10;99.90
18932;DHT22;9598;50.954;3.112;2022-11-23T04:16:55;9.00;99.90
18932;DHT22;9598;50.954;3.112;2022-11-23T04:21:58;9.00;99.90
18932;DHT22;9598;50.954;3.112;2022-11-23T04:27:03;9.00;99.90
18932;DHT22;9598;50.954;3.112;2022-11-23T04:32:07;9.10;99.90
18932;DHT22;9598;50.954;3.112;2022-11-23T04:37:10;9.10;99.90
18932;DHT22;9598;50.954;3.112;2022-11-23T04:42:14;9.10;99.90
18932;DHT22;9598;50.954;3.112;2022-11-23T04:47:24;9.10;99.90
18932;DHT22;9598;50.954;3.112;2022-11-23T04:52:27;9.10;99.90
18932;DHT22;9598;50.954;3.112;2022-11-23T04:57:30;9.10;99.90
18932;DHT22;9598;50.954;3.112;2022-11-23T05:02:34;9.10;99.90
18932;DHT22;9598;50.954;3.112;2022-11-23T05:07:53;9.10;99.90
18932;DHT22;9598;50.954;3.112;2022-11-23T05:12:59;9.10;99.90
18932;DHT22;9598;50.954;3.112;2022-11-23T05:18:05;9.10;99.90
18932;DHT22;9598;50.954;3.112;2022-11-23T05:23:10;9.10;99.90
18932;DHT22;9598;50.954;3.112;2022-11-23T05:28:17;9.10;99.90
18932;DHT22;9598;50.954;3.112;2022-11-23T05:33:21;9.10;99.90
18932;DHT22;9598;50.954;3.112;2022-11-23T05:38:23;9.00;99.90
18932;DHT22;9598;50.954;3.112;2022-11-23T05:43:26;8.90;99.90
18932;DHT22;9598;50.954;3.112;2022-11-23T05:48:29;8.90;99.90
18932;DHT22;9598;50.954;3.112;2022-11-23T05:53:32;8.80;99.90
18932;DHT22;9598;50.954;3.112;2022-11-23T05:58:43;8.80;99.90
18932;DHT22;9598;50.954;3.112;2022-11-23T06:03:48;8.80;99.90
18932;DHT22;9598;50.954;3.112;2022-11-23T06:08:51;8.70;99.90
18932;DHT22;9598;50.954;3.112;2022-11-23T06:13:54;8.70;99.90
18932;DHT22;9598;50.954;3.112;2022-11-23T06:18:57;8.70;99.90
18932;DHT22;9598;50.954;3.112;2022-11-23T06:24:00;8.50;99.90
18932;DHT22;9598;50.954;3.112;2022-11-23T06:29:04;8.40;99.90
18932;DHT22;9598;50.954;3.112;2022-11-23T06:34:09;8.40;99.90
18932;DHT22;9598;50.954;3.112;2022-11-23T06:39:11;8.30;99.90
18932;DHT22;9598;50.954;3.112;2022-11-23T06:44:14;8.30;99.90
18932;DHT22;9598;50.954;3.112;2022-11-23T06:49:19;8.30;99.90
18932;DHT22;9598;50.954;3.112;2022-11-23T06:54:38;8.20;99.90
18932;DHT22;9598;50.954;3.112;2022-11-23T06:59:40;8.20;99.90
18932;DHT22;9598;50.954;3.112;2022-11-23T07:04:44;8.20;99.90
18932;DHT22;9598;50.954;3.112;2022-11-23T07:09:50;8.10;99.90
18932;DHT22;9598;50.954;3.112;2022-11-23T07:14:57;8.00;99.90
18932;DHT22;9598;50.954;3.112;2022-11-23T07:20:00;8.00;99.90
18932;DHT22;9598;50.954;3.112;2022-11-23T07:25:03;8.00;99.90
18932;DHT22;9598;50.954;3.112;2022-11-23T07:30:07;7.90;99.90
18932;DHT22;9598;50.954;3.112;2022-11-23T07:35:11;7.80;99.90
18932;DHT22;9598;50.954;3.112;2022-11-23T07:40:15;7.70;99.90
18932;DHT22;9598;50.954;3.112;2022-11-23T07:45:18;7.70;99.90
18932;DHT22;9598;50.954;3.112;2022-11-23T07:50:29;7.70;99.90
18932;DHT22;9598;50.954;3.112;2022-11-23T07:55:31;7.70;99.90
18932;DHT22;9598;50.954;3.112;2022-11-23T08:00:33;7.70;99.90
18932;DHT22;9598;50.954;3.112;2022-11-23T08:05:36;7.70;99.90
18932;DHT22;9598;50.954;3.112;2022-11-23T08:10:38;7.70;99.90
18932;DHT22;9598;50.954;3.112;2022-11-23T08:15:41;7.70;99.90
18932;DHT22;9598;50.954;3.112;2022-11-23T08:20:44;7.60;99.90
18932;DHT22;9598;50.954;3.112;2022-11-23T08:25:46;7.60;99.90
18932;DHT22;9598;50.954;3.112;2022-11-23T08:30:48;7.70;99.90
18932;DHT22;9598;50.954;3.112;2022-11-23T08:35:52;7.80;99.90
18932;DHT22;9598;50.954;3.112;2022-11-23T08:40:57;7.90;99.90
18932;DHT22;9598;50.954;3.112;2022-11-23T08:46:00;8.00;99.90
18932;DHT22;9598;50.954;3.112;2022-11-23T08:51:04;8.00;99.90
18932;DHT22;9598;50.954;3.112;2022-11-23T08:56:06;8.10;99.90
18932;DHT22;9598;50.954;3.112;2022-11-23T09:01:09;8.10;99.90
18932;DHT22;9598;50.954;3.112;2022-11-23T09:06:12;8.20;99.90
18932;DHT22;9598;50.954;3.112;2022-11-23T09:11:16;8.20;99.90
18932;DHT22;9598;50.954;3.112;2022-11-23T09:16:19;8.30;99.90
18932;DHT22;9598;50.954;3.112;2022-11-23T09:21:23;8.30;99.90
18932;DHT22;9598;50.954;3.112;2022-11-23T09:26:29;8.40;99.90
18932;DHT22;9598;50.954;3.112;2022-11-23T09:31:34;8.40;99.90
18932;DHT22;9598;50.954;3.112;2022-11-23T09:36:37;8.40;99.90
18932;DHT22;9598;50.954;3.112;2022-11-23T09:41:55;8.50;99.90
18932;DHT22;9598;50.954;3.112;2022-11-23T09:47:10;8.60;99.90
18932;DHT22;9598;50.954;3.112;2022-11-23T09:52:19;8.70;99.90
18932;DHT22;9598;50.954;3.112;2022-11-23T09:57:24;8.80;99.90
18932;DHT22;9598;50.954;3.112;2022-11-23T10:02:38;8.90;99.90
18932;DHT22;9598;50.954;3.112;2022-11-23T10:07:51;8.90;99.90
18932;DHT22;9598;50.954;3.112;2022-11-23T10:13:03;8.90;99.90
18932;DHT22;9598;50.954;3.112;2022-11-23T10:18:18;9.00;99.90
18932;DHT22;9598;50.954;3.112;2022-11-23T10:23:47;9.00;99.90
18932;DHT22;9598;50.954;3.112;2022-11-23T10:28:53;9.10;99.90
18932;DHT22;9598;50.954;3.112;2022-11-23T10:34:01;9.20;99.90
18932;DHT22;9598;50.954;3.112;2022-11-23T10:39:15;9.20;99.90
18932;DHT22;9598;50.954;3.112;2022-11-23T10:44:28;9.20;99.90
18932;DHT22;9598;50.954;3.112;2022-11-23T10:49:32;9.20;99.90
18932;DHT22;9598;50.954;3.112;2022-11-23T10:54:37;9.30;99.90
18932;DHT22;9598;50.954;3.112;2022-11-23T10:59:40;9.30;99.90
18932;DHT22;9598;50.954;3.112;2022-11-23T11:04:43;9.30;99.90
18932;DHT22;9598;50.954;3.112;2022-11-23T11:09:53;9.30;99.90
18932;DHT22;9598;50.954;3.112;2022-11-23T11:14:58;9.20;99.90
18932;DHT22;9598;50.954;3.112;2022-11-23T11:20:28;9.20;99.90
18932;DHT22;9598;50.954;3.112;2022-11-23T11:25:34;9.20;99.90
18932;DHT22;9598;50.954;3.112;2022-11-23T11:30:42;9.20;99.90
18932;DHT22;9598;50.954;3.112;2022-11-23T11:35:49;9.20;99.90
18932;DHT22;9598;50.954;3.112;2022-11-23T11:40:54;9.20;99.90
18932;DHT22;9598;50.954;3.112;2022-11-23T11:46:05;9.20;99.90
18932;DHT22;9598;50.954;3.112;2022-11-23T11:51:16;9.20;99.90
18932;DHT22;9598;50.954;3.112;2022-11-23T11:56:26;9.20;99.90
18932;DHT22;9598;50.954;3.112;2022-11-23T12:01:35;9.20;99.90
18932;DHT22;9598;50.954;3.112;2022-11-23T12:06:42;9.20;99.90
18932;DHT22;9598;50.954;3.112;2022-11-23T12:11:48;9.20;99.90
18932;DHT22;9598;50.954;3.112;2022-11-23T12:16:55;9.30;99.90
18932;DHT22;9598;50.954;3.112;2022-11-23T12:22:16;9.30;99.90
18932;DHT22;9598;50.954;3.112;2022-11-23T12:27:32;9.30;99.90
18932;DHT22;9598;50.954;3.112;2022-11-23T12:32:49;9.40;99.90
18932;DHT22;9598;50.954;3.112;2022-11-23T12:38:04;9.40;99.90
18932;DHT22;9598;50.954;3.112;2022-11-23T12:43:14;9.40;99.90
18932;DHT22;9598;50.954;3.112;2022-11-23T12:48:28;9.40;99.90
18932;DHT22;9598;50.954;3.112;2022-11-23T12:53:44;9.40;99.90
18932;DHT22;9598;50.954;3.112;2022-11-23T12:58:53;9.40;99.90
18932;DHT22;9598;50.954;3.112;2022-11-23T13:09:52;9.50;99.90
18932;DHT22;9598;50.954;3.112;2022-11-23T13:15:11;9.50;99.90
18932;DHT22;9598;50.954;3.112;2022-11-23T13:20:41;9.60;99.90
18932;DHT22;9598;50.954;3.112;2022-11-23T13:26:14;9.60;99.90
18932;DHT22;9598;50.954;3.112;2022-11-23T13:31:23;9.60;99.90
18932;DHT22;9598;50.954;3.112;2022-11-23T13:36:39;9.60;99.90
18932;DHT22;9598;50.954;3.112;2022-11-23T13:41:58;9.70;99.90
18932;DHT22;9598;50.954;3.112;2022-11-23T13:47:05;9.80;99.90
18932;DHT22;9598;50.954;3.112;2022-11-23T13:52:26;9.90;99.90
18932;DHT22;9598;50.954;3.112;2022-11-23T13:57:29;10.10;99.90
18932;DHT22;9598;50.954;3.112;2022-11-23T14:02:32;10.20;99.90
18932;DHT22;9598;50.954;3.112;2022-11-23T14:07:39;10.30;99.90
18932;DHT22;9598;50.954;3.112;2022-11-23T14:12:48;10.40;99.90
18932;DHT22;9598;50.954;3.112;2022-11-23T14:18:24;10.40;99.90
18932;DHT22;9598;50.954;3.112;2022-11-23T14:29:30;10.40;99.90
18932;DHT22;9598;50.954;3.112;2022-11-23T14:34:46;10.40;99.90
18932;DHT22;9598;50.954;3.112;2022-11-23T14:39:58;10.50;99.90
18932;DHT22;9598;50.954;3.112;2022-11-23T14:45:04;10.50;99.90
18932;DHT22;9598;50.954;3.112;2022-11-23T14:50:19;10.40;99.90
18932;DHT22;9598;50.954;3.112;2022-11-23T14:55:23;10.40;99.90
18932;DHT22;9598;50.954;3.112;2022-11-23T15:00:29;10.50;99.90
18932;DHT22;9598;50.954;3.112;2022-11-23T15:05:34;10.50;99.90
18932;DHT22;9598;50.954;3.112;2022-11-23T15:10:43;10.50;99.90
18932;DHT22;9598;50.954;3.112;2022-11-23T15:15:49;10.40;99.90
18932;DHT22;9598;50.954;3.112;2022-11-23T15:20:56;10.40;99.90
18932;DHT22;9598;50.954;3.112;2022-11-23T15:26:01;10.40;99.90
18932;DHT22;9598;50.954;3.112;2022-11-23T15:31:18;10.40;99.90
18932;DHT22;9598;50.954;3.112;2022-11-23T15:36:28;10.40;99.90
18932;DHT22;9598;50.954;3.112;2022-11-23T15:41:30;10.30;99.90
18932;DHT22;9598;50.954;3.112;2022-11-23T15:46:35;10.30;99.90
18932;DHT22;9598;50.954;3.112;2022-11-23T15:51:41;10.20;99.90
18932;DHT22;9598;50.954;3.112;2022-11-23T15:56:45;10.20;99.90
18932;DHT22;9598;50.954;3.112;2022-11-23T16:01:49;10.20;99.90
18932;DHT22;9598;50.954;3.112;2022-11-23T16:06:52;10.30;99.90
18932;DHT22;9598;50.954;3.112;2022-11-23T16:11:55;10.30;99.90
18932;DHT22;9598;50.954;3.112;2022-11-23T16:16:59;10.30;99.90
18932;DHT22;9598;50.954;3.112;2022-11-23T16:22:06;10.20;99.90
18932;DHT22;9598;50.954;3.112;2022-11-23T16:27:22;10.20;99.90
18932;DHT22;9598;50.954;3.112;2022-11-23T16:32:27;10.20;99.90
18932;DHT22;9598;50.954;3.112;2022-11-23T16:37:30;10.30;99.90
18932;DHT22;9598;50.954;3.112;2022-11-23T16:42:32;10.30;99.90
18932;DHT22;9598;50.954;3.112;2022-11-23T16:47:34;10.30;99.90
18932;DHT22;9598;50.954;3.112;2022-11-23T16:52:38;10.30;99.90
18932;DHT22;9598;50.954;3.112;2022-11-23T16:57:44;10.20;99.90
18932;DHT22;9598;50.954;3.112;2022-11-23T17:02:47;10.20;99.90
18932;DHT22;9598;50.954;3.112;2022-11-23T17:07:50;10.20;99.90
18932;DHT22;9598;50.954;3.112;2022-11-23T17:12:53;10.20;99.90
18932;DHT22;9598;50.954;3.112;2022-11-23T17:17:56;10.20;99.90
18932;DHT22;9598;50.954;3.112;2022-11-23T17:22:59;10.20;99.90
18932;DHT22;9598;50.954;3.112;2022-11-23T17:28:03;10.20;99.90
18932;DHT22;9598;50.954;3.112;2022-11-23T17:33:08;10.20;99.90
18932;DHT22;9598;50.954;3.112;2022-11-23T17:38:15;10.20;99.90
18932;DHT22;9598;50.954;3.112;2022-11-23T17:43:18;10.20;99.90
18932;DHT22;9598;50.954;3.112;2022-11-23T17:48:20;10.10;99.90
18932;DHT22;9598;50.954;3.112;2022-11-23T17:53:24;10.10;99.90
18932;DHT22;9598;50.954;3.112;2022-11-23T17:58:26;10.10;99.90
18932;DHT22;9598;50.954;3.112;2022-11-23T18:03:28;10.10;99.90
18932;DHT22;9598;50.954;3.112;2022-11-23T18:08:32;10.10;99.90
18932;DHT22;9598;50.954;3.112;2022-11-23T18:13:34;10.10;99.90
18932;DHT22;9598;50.954;3.112;2022-11-23T18:18:36;10.10;99.90
18932;DHT22;9598;50.954;3.112;2022-11-23T18:23:40;10.10;99.90
18932;DHT22;9598;50.954;3.112;2022-11-23T18:28:42;10.20;99.90
18932;DHT22;9598;50.954;3.112;2022-11-23T18:33:44;10.20;99.90
18932;DHT22;9598;50.954;3.112;2022-11-23T18:38:48;10.20;99.90
18932;DHT22;9598;50.954;3.112;2022-11-23T18:43:50;10.10;99.90
18932;DHT22;9598;50.954;3.112;2022-11-23T18:48:52;10.10;99.90
18932;DHT22;9598;50.954;3.112;2022-11-23T18:53:58;10.00;99.90
18932;DHT22;9598;50.954;3.112;2022-11-23T18:59:00;10.00;99.90
18932;DHT22;9598;50.954;3.112;2022-11-23T19:04:02;10.00;99.90
18932;DHT22;9598;50.954;3.112;2022-11-23T19:09:05;10.00;99.90
18932;DHT22;9598;50.954;3.112;2022-11-23T19:14:08;9.90;99.90
18932;DHT22;9598;50.954;3.112;2022-11-23T19:19:10;9.90;99.90
18932;DHT22;9598;50.954;3.112;2022-11-23T19:24:13;9.90;99.90
18932;DHT22;9598;50.954;3.112;2022-11-23T19:29:16;9.90;99.90
18932;DHT22;9598;50.954;3.112;2022-11-23T19:34:19;9.80;99.90
18932;DHT22;9598;50.954;3.112;2022-11-23T19:39:23;9.80;99.90
18932;DHT22;9598;50.954;3.112;2022-11-23T19:44:25;9.80;99.90
18932;DHT22;9598;50.954;3.112;2022-11-23T19:49:28;9.80;99.90
18932;DHT22;9598;50.954;3.112;2022-11-23T19:54:32;9.80;99.90
18932;DHT22;9598;50.954;3.112;2022-11-23T19:59:34;9.80;99.90
18932;DHT22;9598;50.954;3.112;2022-11-23T20:04:36;9.80;99.90
18932;DHT22;9598;50.954;3.112;2022-11-23T20:09:39;9.80;99.90
18932;DHT22;9598;50.954;3.112;2022-11-23T20:14:41;9.80;99.90
18932;DHT22;9598;50.954;3.112;2022-11-23T20:19:43;9.90;99.90
18932;DHT22;9598;50.954;3.112;2022-11-23T20:24:47;9.90;99.90
18932;DHT22;9598;50.954;3.112;2022-11-23T20:29:51;9.90;99.90
18932;DHT22;9598;50.954;3.112;2022-11-23T20:34:54;9.90;99.90
18932;DHT22;9598;50.954;3.112;2022-11-23T20:39:57;9.90;99.90
18932;DHT22;9598;50.954;3.112;2022-11-23T20:44:59;9.80;99.90
18932;DHT22;9598;50.954;3.112;2022-11-23T20:50:01;9.90;99.90
18932;DHT22;9598;50.954;3.112;2022-11-23T20:55:05;9.90;99.90
18932;DHT22;9598;50.954;3.112;2022-11-23T21:00:09;9.90;99.90
18932;DHT22;9598;50.954;3.112;2022-11-23T21:05:11;9.90;99.90
18932;DHT22;9598;50.954;3.112;2022-11-23T21:10:15;10.00;99.90
18932;DHT22;9598;50.954;3.112;2022-11-23T21:15:34;10.00;99.90
18932;DHT22;9598;50.954;3.112;2022-11-23T21:20:37;9.90;99.90
18932;DHT22;9598;50.954;3.112;2022-11-23T21:25:41;10.00;99.90
18932;DHT22;9598;50.954;3.112;2022-11-23T21:30:43;9.90;99.90
18932;DHT22;9598;50.954;3.112;2022-11-23T21:35:45;9.90;99.90
18932;DHT22;9598;50.954;3.112;2022-11-23T21:40:55;9.80;99.90
18932;DHT22;9598;50.954;3.112;2022-11-23T21:45:58;9.90;99.90
18932;DHT22;9598;50.954;3.112;2022-11-23T21:51:02;9.80;99.90
18932;DHT22;9598;50.954;3.112;2022-11-23T21:56:09;9.80;99.90
18932;DHT22;9598;50.954;3.112;2022-11-23T22:01:13;9.80;99.90
18932;DHT22;9598;50.954;3.112;2022-11-23T22:06:16;9.80;99.90
18932;DHT22;9598;50.954;3.112;2022-11-23T22:11:22;9.80;99.90
18932;DHT22;9598;50.954;3.112;2022-11-23T22:16:25;9.80;99.90
18932;DHT22;9598;50.954;3.112;2022-11-23T22:21:31;9.70;99.90
18932;DHT22;9598;50.954;3.112;2022-11-23T22:26:35;9.70;99.90
18932;DHT22;9598;50.954;3.112;2022-11-23T22:31:37;9.70;99.90
18932;DHT22;9598;50.954;3.112;2022-11-23T22:36:39;9.60;99.90
18932;DHT22;9598;50.954;3.112;2022-11-23T22:41:43;9.60;99.90
18932;DHT22;9598;50.954;3.112;2022-11-23T22:46:45;9.60;99.90
18932;DHT22;9598;50.954;3.112;2022-11-23T22:51:47;9.60;99.90
18932;DHT22;9598;50.954;3.112;2022-11-23T22:56:50;9.50;99.90
18932;DHT22;9598;50.954;3.112;2022-11-23T23:01:52;9.50;99.90
18932;DHT22;9598;50.954;3.112;2022-11-23T23:06:54;9.50;99.90
18932;DHT22;9598;50.954;3.112;2022-11-23T23:11:58;9.50;99.90
18932;DHT22;9598;50.954;3.112;2022-11-23T23:17:00;9.50;99.90
18932;DHT22;9598;50.954;3.112;2022-11-23T23:22:03;9.50;99.90
18932;DHT22;9598;50.954;3.112;2022-11-23T23:27:06;9.50;99.90
18932;DHT22;9598;50.954;3.112;2022-11-23T23:32:08;9.50;99.90
18932;DHT22;9598;50.954;3.112;2022-11-23T23:37:11;9.50;99.90
18932;DHT22;9598;50.954;3.112;2022-11-23T23:42:15;9.50;99.90
18932;DHT22;9598;50.954;3.112;2022-11-23T23:47:17;9.50;99.90
18932;DHT22;9598;50.954;3.112;2022-11-23T23:52:19;9.50;99.90
18932;DHT22;9598;50.954;3.112;2022-11-23T23:57:23;9.50;99.90
